sensor_id;sensor_type;location;lat;lon;timestamp;P1;durP1;ratioP1;P2;durP2;ratioP2
12892;SDS011;6514;48.606;9.222;2022-10-13T00:01:26;30.80;;;20.43;;
12892;SDS011;6514;48.606;9.222;2022-10-13T00:03:53;30.57;;;22.43;;
12892;SDS011;6514;48.606;9.222;2022-10-13T00:06:21;30.90;;;20.67;;
12892;SDS011;6514;48.606;9.222;2022-10-13T00:08:49;37.43;;;23.70;;
12892;SDS011;6514;48.606;9.222;2022-10-13T00:11:18;32.97;;;21.77;;
12892;SDS011;6514;48.606;9.222;2022-10-13T00:13:47;35.50;;;21.87;;
12892;SDS011;6514;48.606;9.222;2022-10-13T00:16:17;32.63;;;22.13;;
12892;SDS011;6514;48.606;9.222;2022-10-13T00:18:45;34.20;;;21.83;;
12892;SDS011;6514;48.606;9.222;2022-10-13T00:21:13;35.77;;;21.80;;
12892;SDS011;6514;48.606;9.222;2022-10-13T00:23:41;37.30;;;23.93;;
12892;SDS011;6514;48.606;9.222;2022-10-13T00:26:09;38.43;;;23.90;;
12892;SDS011;6514;48.606;9.222;2022-10-13T00:28:38;34.47;;;23.13;;
12892;SDS011;6514;48.606;9.222;2022-10-13T00:31:13;43.27;;;24.73;;
12892;SDS011;6514;48.606;9.222;2022-10-13T00:33:41;38.53;;;23.23;;
12892;SDS011;6514;48.606;9.222;2022-10-13T00:36:08;39.00;;;23.73;;
12892;SDS011;6514;48.606;9.222;2022-10-13T00:38:35;39.60;;;24.77;;
12892;SDS011;6514;48.606;9.222;2022-10-13T00:41:02;40.60;;;23.37;;
12892;SDS011;6514;48.606;9.222;2022-10-13T00:46:16;41.83;;;24.10;;
12892;SDS011;6514;48.606;9.222;2022-10-13T00:48:44;36.47;;;22.80;;
12892;SDS011;6514;48.606;9.222;2022-10-13T00:51:13;35.67;;;21.93;;
12892;SDS011;6514;48.606;9.222;2022-10-13T00:53:43;39.03;;;23.67;;
12892;SDS011;6514;48.606;9.222;2022-10-13T00:56:12;35.23;;;21.53;;
12892;SDS011;6514;48.606;9.222;2022-10-13T00:58:42;34.57;;;23.50;;
12892;SDS011;6514;48.606;9.222;2022-10-13T01:01:10;37.93;;;23.13;;
12892;SDS011;6514;48.606;9.222;2022-10-13T01:03:38;34.83;;;23.17;;
12892;SDS011;6514;48.606;9.222;2022-10-13T01:06:06;39.77;;;23.87;;
12892;SDS011;6514;48.606;9.222;2022-10-13T01:08:34;38.07;;;24.30;;
12892;SDS011;6514;48.606;9.222;2022-10-13T01:11:05;40.67;;;24.13;;
12892;SDS011;6514;48.606;9.222;2022-10-13T01:13:43;39.97;;;24.90;;
12892;SDS011;6514;48.606;9.222;2022-10-13T01:16:15;36.87;;;22.83;;
12892;SDS011;6514;48.606;9.222;2022-10-13T01:18:50;40.23;;;24.47;;
12892;SDS011;6514;48.606;9.222;2022-10-13T01:21:25;39.27;;;23.43;;
12892;SDS011;6514;48.606;9.222;2022-10-13T01:24:11;48.07;;;24.17;;
12892;SDS011;6514;48.606;9.222;2022-10-13T01:27:07;41.77;;;23.10;;
12892;SDS011;6514;48.606;9.222;2022-10-13T01:30:05;38.73;;;23.83;;
12892;SDS011;6514;48.606;9.222;2022-10-13T01:32:39;38.27;;;23.77;;
12892;SDS011;6514;48.606;9.222;2022-10-13T01:35:17;43.03;;;23.10;;
12892;SDS011;6514;48.606;9.222;2022-10-13T01:37:51;47.00;;;24.83;;
12892;SDS011;6514;48.606;9.222;2022-10-13T01:40:24;38.40;;;23.67;;
12892;SDS011;6514;48.606;9.222;2022-10-13T01:42:55;40.97;;;23.83;;
12892;SDS011;6514;48.606;9.222;2022-10-13T01:45:29;37.93;;;23.67;;
12892;SDS011;6514;48.606;9.222;2022-10-13T01:48:00;45.60;;;24.23;;
12892;SDS011;6514;48.606;9.222;2022-10-13T01:50:29;40.47;;;24.30;;
12892;SDS011;6514;48.606;9.222;2022-10-13T01:52:59;40.23;;;23.90;;
12892;SDS011;6514;48.606;9.222;2022-10-13T01:55:29;38.30;;;23.47;;
12892;SDS011;6514;48.606;9.222;2022-10-13T01:57:56;38.13;;;23.10;;
12892;SDS011;6514;48.606;9.222;2022-10-13T02:00:23;38.60;;;24.50;;
12892;SDS011;6514;48.606;9.222;2022-10-13T02:02:55;36.57;;;22.70;;
12892;SDS011;6514;48.606;9.222;2022-10-13T02:05:32;36.30;;;22.87;;
12892;SDS011;6514;48.606;9.222;2022-10-13T02:08:08;35.53;;;23.30;;
12892;SDS011;6514;48.606;9.222;2022-10-13T02:10:39;33.97;;;23.50;;
12892;SDS011;6514;48.606;9.222;2022-10-13T02:13:13;35.73;;;23.67;;
12892;SDS011;6514;48.606;9.222;2022-10-13T02:15:43;37.70;;;23.33;;
12892;SDS011;6514;48.606;9.222;2022-10-13T02:18:16;36.63;;;22.93;;
12892;SDS011;6514;48.606;9.222;2022-10-13T02:20:46;38.73;;;23.50;;
12892;SDS011;6514;48.606;9.222;2022-10-13T02:23:14;33.37;;;22.03;;
12892;SDS011;6514;48.606;9.222;2022-10-13T02:25:42;33.17;;;21.67;;
12892;SDS011;6514;48.606;9.222;2022-10-13T02:28:11;32.57;;;21.67;;
12892;SDS011;6514;48.606;9.222;2022-10-13T02:30:39;33.10;;;20.63;;
12892;SDS011;6514;48.606;9.222;2022-10-13T02:33:07;36.80;;;21.33;;
12892;SDS011;6514;48.606;9.222;2022-10-13T02:35:36;24.87;;;19.20;;
12892;SDS011;6514;48.606;9.222;2022-10-13T02:38:03;25.70;;;18.63;;
12892;SDS011;6514;48.606;9.222;2022-10-13T02:40:30;25.70;;;20.37;;
12892;SDS011;6514;48.606;9.222;2022-10-13T02:42:57;28.80;;;20.43;;
12892;SDS011;6514;48.606;9.222;2022-10-13T02:45:24;32.33;;;20.40;;
12892;SDS011;6514;48.606;9.222;2022-10-13T02:47:51;27.83;;;21.17;;
12892;SDS011;6514;48.606;9.222;2022-10-13T02:50:18;27.00;;;18.97;;
12892;SDS011;6514;48.606;9.222;2022-10-13T02:52:47;29.07;;;20.37;;
12892;SDS011;6514;48.606;9.222;2022-10-13T02:55:13;33.03;;;21.40;;
12892;SDS011;6514;48.606;9.222;2022-10-13T02:57:40;28.80;;;19.97;;
12892;SDS011;6514;48.606;9.222;2022-10-13T03:00:13;27.83;;;21.03;;
12892;SDS011;6514;48.606;9.222;2022-10-13T03:02:40;30.20;;;20.63;;
12892;SDS011;6514;48.606;9.222;2022-10-13T03:05:08;29.97;;;20.60;;
12892;SDS011;6514;48.606;9.222;2022-10-13T03:07:35;31.00;;;20.37;;
12892;SDS011;6514;48.606;9.222;2022-10-13T03:10:03;30.47;;;20.83;;
12892;SDS011;6514;48.606;9.222;2022-10-13T03:12:30;29.03;;;20.00;;
12892;SDS011;6514;48.606;9.222;2022-10-13T03:14:57;29.67;;;19.90;;
12892;SDS011;6514;48.606;9.222;2022-10-13T03:17:24;29.43;;;20.27;;
12892;SDS011;6514;48.606;9.222;2022-10-13T03:19:51;27.37;;;20.10;;
12892;SDS011;6514;48.606;9.222;2022-10-13T03:22:18;28.87;;;19.90;;
12892;SDS011;6514;48.606;9.222;2022-10-13T03:24:45;28.10;;;19.67;;
12892;SDS011;6514;48.606;9.222;2022-10-13T03:27:13;32.90;;;21.13;;
12892;SDS011;6514;48.606;9.222;2022-10-13T03:29:40;26.30;;;20.20;;
12892;SDS011;6514;48.606;9.222;2022-10-13T03:32:07;32.80;;;20.57;;
12892;SDS011;6514;48.606;9.222;2022-10-13T03:34:34;28.83;;;20.37;;
12892;SDS011;6514;48.606;9.222;2022-10-13T03:37:01;26.67;;;18.87;;
12892;SDS011;6514;48.606;9.222;2022-10-13T03:39:28;27.00;;;19.67;;
12892;SDS011;6514;48.606;9.222;2022-10-13T03:41:55;30.97;;;19.73;;
12892;SDS011;6514;48.606;9.222;2022-10-13T03:44:23;24.77;;;19.60;;
12892;SDS011;6514;48.606;9.222;2022-10-13T03:46:50;27.87;;;19.87;;
12892;SDS011;6514;48.606;9.222;2022-10-13T03:49:17;27.50;;;20.13;;
12892;SDS011;6514;48.606;9.222;2022-10-13T03:51:44;30.27;;;19.93;;
12892;SDS011;6514;48.606;9.222;2022-10-13T03:54:11;30.20;;;20.93;;
12892;SDS011;6514;48.606;9.222;2022-10-13T03:56:38;31.83;;;19.90;;
12892;SDS011;6514;48.606;9.222;2022-10-13T03:59:06;28.77;;;19.17;;
12892;SDS011;6514;48.606;9.222;2022-10-13T04:01:34;28.00;;;20.37;;
12892;SDS011;6514;48.606;9.222;2022-10-13T04:04:01;25.77;;;20.07;;
12892;SDS011;6514;48.606;9.222;2022-10-13T04:06:28;33.37;;;20.30;;
12892;SDS011;6514;48.606;9.222;2022-10-13T04:08:55;29.33;;;20.07;;
12892;SDS011;6514;48.606;9.222;2022-10-13T04:11:23;24.23;;;18.63;;
12892;SDS011;6514;48.606;9.222;2022-10-13T04:13:50;28.47;;;20.00;;
12892;SDS011;6514;48.606;9.222;2022-10-13T04:16:18;26.20;;;19.17;;
12892;SDS011;6514;48.606;9.222;2022-10-13T04:18:50;27.80;;;19.53;;
12892;SDS011;6514;48.606;9.222;2022-10-13T04:21:19;26.07;;;18.60;;
12892;SDS011;6514;48.606;9.222;2022-10-13T04:23:46;22.80;;;17.93;;
12892;SDS011;6514;48.606;9.222;2022-10-13T04:26:14;21.30;;;17.07;;
12892;SDS011;6514;48.606;9.222;2022-10-13T04:28:42;23.53;;;17.43;;
12892;SDS011;6514;48.606;9.222;2022-10-13T04:31:10;27.27;;;18.87;;
12892;SDS011;6514;48.606;9.222;2022-10-13T04:33:37;27.27;;;18.80;;
12892;SDS011;6514;48.606;9.222;2022-10-13T04:36:06;23.57;;;18.20;;
12892;SDS011;6514;48.606;9.222;2022-10-13T04:38:35;28.80;;;18.53;;
12892;SDS011;6514;48.606;9.222;2022-10-13T04:41:02;27.63;;;18.67;;
12892;SDS011;6514;48.606;9.222;2022-10-13T04:43:30;24.27;;;17.77;;
12892;SDS011;6514;48.606;9.222;2022-10-13T04:46:00;26.70;;;18.17;;
12892;SDS011;6514;48.606;9.222;2022-10-13T04:48:28;27.50;;;19.03;;
12892;SDS011;6514;48.606;9.222;2022-10-13T04:50:59;26.87;;;18.90;;
12892;SDS011;6514;48.606;9.222;2022-10-13T04:53:28;31.73;;;19.43;;
12892;SDS011;6514;48.606;9.222;2022-10-13T04:55:59;28.27;;;20.63;;
12892;SDS011;6514;48.606;9.222;2022-10-13T04:58:26;36.50;;;20.50;;
12892;SDS011;6514;48.606;9.222;2022-10-13T05:00:53;34.57;;;21.33;;
12892;SDS011;6514;48.606;9.222;2022-10-13T05:03:20;34.83;;;21.27;;
12892;SDS011;6514;48.606;9.222;2022-10-13T05:05:47;33.17;;;21.43;;
12892;SDS011;6514;48.606;9.222;2022-10-13T05:08:14;36.63;;;21.07;;
12892;SDS011;6514;48.606;9.222;2022-10-13T05:10:44;36.67;;;21.67;;
12892;SDS011;6514;48.606;9.222;2022-10-13T05:13:18;35.73;;;22.87;;
12892;SDS011;6514;48.606;9.222;2022-10-13T05:15:45;36.87;;;21.33;;
12892;SDS011;6514;48.606;9.222;2022-10-13T05:18:12;32.27;;;21.27;;
12892;SDS011;6514;48.606;9.222;2022-10-13T05:20:39;33.07;;;21.00;;
12892;SDS011;6514;48.606;9.222;2022-10-13T05:23:06;35.40;;;21.40;;
12892;SDS011;6514;48.606;9.222;2022-10-13T05:25:33;35.67;;;22.80;;
12892;SDS011;6514;48.606;9.222;2022-10-13T05:28:01;33.20;;;21.10;;
12892;SDS011;6514;48.606;9.222;2022-10-13T05:30:29;32.70;;;20.27;;
12892;SDS011;6514;48.606;9.222;2022-10-13T05:32:56;33.63;;;22.37;;
12892;SDS011;6514;48.606;9.222;2022-10-13T05:35:23;32.07;;;21.10;;
12892;SDS011;6514;48.606;9.222;2022-10-13T05:37:50;36.40;;;22.23;;
12892;SDS011;6514;48.606;9.222;2022-10-13T05:40:17;35.47;;;22.93;;
12892;SDS011;6514;48.606;9.222;2022-10-13T05:42:45;39.53;;;25.70;;
12892;SDS011;6514;48.606;9.222;2022-10-13T05:45:13;33.37;;;23.40;;
12892;SDS011;6514;48.606;9.222;2022-10-13T05:47:40;39.27;;;26.77;;
12892;SDS011;6514;48.606;9.222;2022-10-13T05:50:07;39.93;;;28.93;;
12892;SDS011;6514;48.606;9.222;2022-10-13T05:52:34;40.07;;;25.77;;
12892;SDS011;6514;48.606;9.222;2022-10-13T05:55:03;38.53;;;25.43;;
12892;SDS011;6514;48.606;9.222;2022-10-13T05:57:34;37.87;;;23.97;;
12892;SDS011;6514;48.606;9.222;2022-10-13T06:00:07;38.03;;;25.53;;
12892;SDS011;6514;48.606;9.222;2022-10-13T06:02:38;41.03;;;25.87;;
12892;SDS011;6514;48.606;9.222;2022-10-13T06:05:10;42.73;;;26.17;;
12892;SDS011;6514;48.606;9.222;2022-10-13T06:07:39;34.20;;;24.93;;
12892;SDS011;6514;48.606;9.222;2022-10-13T06:10:07;39.17;;;24.63;;
12892;SDS011;6514;48.606;9.222;2022-10-13T06:12:35;35.73;;;21.87;;
12892;SDS011;6514;48.606;9.222;2022-10-13T06:15:04;37.30;;;23.10;;
12892;SDS011;6514;48.606;9.222;2022-10-13T06:17:31;35.43;;;23.60;;
12892;SDS011;6514;48.606;9.222;2022-10-13T06:20:02;41.13;;;24.00;;
12892;SDS011;6514;48.606;9.222;2022-10-13T06:22:30;33.40;;;22.23;;
12892;SDS011;6514;48.606;9.222;2022-10-13T06:24:57;34.53;;;22.37;;
12892;SDS011;6514;48.606;9.222;2022-10-13T06:27:24;25.37;;;20.17;;
12892;SDS011;6514;48.606;9.222;2022-10-13T06:29:51;30.40;;;21.00;;
12892;SDS011;6514;48.606;9.222;2022-10-13T06:32:18;28.93;;;21.87;;
12892;SDS011;6514;48.606;9.222;2022-10-13T06:34:45;32.67;;;21.63;;
12892;SDS011;6514;48.606;9.222;2022-10-13T06:37:13;32.10;;;20.70;;
12892;SDS011;6514;48.606;9.222;2022-10-13T06:39:40;24.53;;;19.50;;
12892;SDS011;6514;48.606;9.222;2022-10-13T06:42:07;28.00;;;21.80;;
12892;SDS011;6514;48.606;9.222;2022-10-13T06:44:34;24.47;;;20.23;;
12892;SDS011;6514;48.606;9.222;2022-10-13T06:47:01;23.03;;;19.10;;
12892;SDS011;6514;48.606;9.222;2022-10-13T06:49:29;25.30;;;19.27;;
12892;SDS011;6514;48.606;9.222;2022-10-13T06:51:56;27.43;;;18.17;;
12892;SDS011;6514;48.606;9.222;2022-10-13T06:54:24;25.00;;;18.17;;
12892;SDS011;6514;48.606;9.222;2022-10-13T06:56:51;32.47;;;17.70;;
12892;SDS011;6514;48.606;9.222;2022-10-13T06:59:18;27.53;;;16.83;;
12892;SDS011;6514;48.606;9.222;2022-10-13T07:01:45;23.80;;;18.43;;
12892;SDS011;6514;48.606;9.222;2022-10-13T07:04:13;24.20;;;17.47;;
12892;SDS011;6514;48.606;9.222;2022-10-13T07:06:40;20.40;;;16.83;;
12892;SDS011;6514;48.606;9.222;2022-10-13T07:09:07;21.37;;;17.13;;
12892;SDS011;6514;48.606;9.222;2022-10-13T07:11:35;21.23;;;16.47;;
12892;SDS011;6514;48.606;9.222;2022-10-13T07:14:02;20.60;;;15.73;;
12892;SDS011;6514;48.606;9.222;2022-10-13T07:16:30;18.57;;;14.70;;
12892;SDS011;6514;48.606;9.222;2022-10-13T07:18:57;20.07;;;14.37;;
12892;SDS011;6514;48.606;9.222;2022-10-13T07:21:24;17.53;;;14.27;;
12892;SDS011;6514;48.606;9.222;2022-10-13T07:23:50;17.33;;;14.70;;
12892;SDS011;6514;48.606;9.222;2022-10-13T07:26:17;16.60;;;13.73;;
12892;SDS011;6514;48.606;9.222;2022-10-13T07:28:46;16.17;;;13.00;;
12892;SDS011;6514;48.606;9.222;2022-10-13T07:31:13;15.70;;;13.13;;
12892;SDS011;6514;48.606;9.222;2022-10-13T07:33:42;19.90;;;13.00;;
12892;SDS011;6514;48.606;9.222;2022-10-13T07:36:10;16.10;;;13.23;;
12892;SDS011;6514;48.606;9.222;2022-10-13T07:38:37;16.20;;;13.33;;
12892;SDS011;6514;48.606;9.222;2022-10-13T07:41:05;17.83;;;12.50;;
12892;SDS011;6514;48.606;9.222;2022-10-13T07:43:34;19.20;;;12.07;;
12892;SDS011;6514;48.606;9.222;2022-10-13T07:46:02;17.33;;;11.83;;
12892;SDS011;6514;48.606;9.222;2022-10-13T07:48:30;14.87;;;10.37;;
12892;SDS011;6514;48.606;9.222;2022-10-13T07:50:57;11.83;;;10.47;;
12892;SDS011;6514;48.606;9.222;2022-10-13T07:53:24;15.93;;;10.90;;
12892;SDS011;6514;48.606;9.222;2022-10-13T07:55:52;13.97;;;9.43;;
12892;SDS011;6514;48.606;9.222;2022-10-13T07:58:18;14.40;;;9.77;;
12892;SDS011;6514;48.606;9.222;2022-10-13T08:00:54;14.43;;;9.50;;
12892;SDS011;6514;48.606;9.222;2022-10-13T08:03:22;15.40;;;10.37;;
12892;SDS011;6514;48.606;9.222;2022-10-13T08:05:49;15.20;;;10.27;;
12892;SDS011;6514;48.606;9.222;2022-10-13T08:08:16;10.50;;;9.40;;
12892;SDS011;6514;48.606;9.222;2022-10-13T08:10:44;12.03;;;9.77;;
12892;SDS011;6514;48.606;9.222;2022-10-13T08:13:11;11.97;;;9.63;;
12892;SDS011;6514;48.606;9.222;2022-10-13T08:15:39;10.70;;;9.03;;
12892;SDS011;6514;48.606;9.222;2022-10-13T08:18:06;11.13;;;8.73;;
12892;SDS011;6514;48.606;9.222;2022-10-13T08:20:37;9.90;;;8.60;;
12892;SDS011;6514;48.606;9.222;2022-10-13T08:23:04;13.97;;;9.87;;
12892;SDS011;6514;48.606;9.222;2022-10-13T08:25:35;11.83;;;9.60;;
12892;SDS011;6514;48.606;9.222;2022-10-13T08:28:03;11.60;;;8.83;;
12892;SDS011;6514;48.606;9.222;2022-10-13T08:30:29;9.70;;;8.70;;
12892;SDS011;6514;48.606;9.222;2022-10-13T08:32:57;10.73;;;8.70;;
12892;SDS011;6514;48.606;9.222;2022-10-13T08:35:24;12.20;;;8.27;;
12892;SDS011;6514;48.606;9.222;2022-10-13T08:37:52;9.83;;;8.80;;
12892;SDS011;6514;48.606;9.222;2022-10-13T08:40:19;13.90;;;8.47;;
12892;SDS011;6514;48.606;9.222;2022-10-13T08:42:47;12.60;;;9.40;;
12892;SDS011;6514;48.606;9.222;2022-10-13T08:45:17;11.53;;;8.67;;
12892;SDS011;6514;48.606;9.222;2022-10-13T08:47:47;10.63;;;8.50;;
12892;SDS011;6514;48.606;9.222;2022-10-13T08:50:18;9.47;;;8.40;;
12892;SDS011;6514;48.606;9.222;2022-10-13T08:52:48;14.23;;;8.30;;
12892;SDS011;6514;48.606;9.222;2022-10-13T08:55:22;8.77;;;7.90;;
12892;SDS011;6514;48.606;9.222;2022-10-13T08:57:51;10.63;;;8.07;;
12892;SDS011;6514;48.606;9.222;2022-10-13T09:00:18;11.17;;;8.23;;
12892;SDS011;6514;48.606;9.222;2022-10-13T09:02:45;10.90;;;8.57;;
12892;SDS011;6514;48.606;9.222;2022-10-13T09:05:14;10.47;;;7.40;;
12892;SDS011;6514;48.606;9.222;2022-10-13T09:07:50;12.27;;;7.93;;
12892;SDS011;6514;48.606;9.222;2022-10-13T09:10:18;10.03;;;8.30;;
12892;SDS011;6514;48.606;9.222;2022-10-13T09:12:47;10.27;;;8.07;;
12892;SDS011;6514;48.606;9.222;2022-10-13T09:15:15;10.80;;;8.23;;
12892;SDS011;6514;48.606;9.222;2022-10-13T09:17:43;12.17;;;8.77;;
12892;SDS011;6514;48.606;9.222;2022-10-13T09:20:15;10.33;;;8.50;;
12892;SDS011;6514;48.606;9.222;2022-10-13T09:22:48;13.20;;;8.30;;
12892;SDS011;6514;48.606;9.222;2022-10-13T09:25:28;13.13;;;8.40;;
12892;SDS011;6514;48.606;9.222;2022-10-13T09:28:08;10.53;;;7.70;;
12892;SDS011;6514;48.606;9.222;2022-10-13T09:30:39;9.50;;;7.33;;
12892;SDS011;6514;48.606;9.222;2022-10-13T09:33:15;9.80;;;7.73;;
12892;SDS011;6514;48.606;9.222;2022-10-13T09:36:04;10.57;;;7.07;;
12892;SDS011;6514;48.606;9.222;2022-10-13T09:38:35;10.03;;;7.37;;
12892;SDS011;6514;48.606;9.222;2022-10-13T09:41:05;8.90;;;7.43;;
12892;SDS011;6514;48.606;9.222;2022-10-13T09:43:40;11.43;;;6.93;;
12892;SDS011;6514;48.606;9.222;2022-10-13T09:46:12;8.00;;;7.20;;
12892;SDS011;6514;48.606;9.222;2022-10-13T09:48:48;8.47;;;7.07;;
12892;SDS011;6514;48.606;9.222;2022-10-13T09:51:29;11.17;;;6.87;;
12892;SDS011;6514;48.606;9.222;2022-10-13T09:53:59;11.40;;;6.90;;
12892;SDS011;6514;48.606;9.222;2022-10-13T09:56:29;8.47;;;7.10;;
12892;SDS011;6514;48.606;9.222;2022-10-13T09:59:04;12.43;;;7.47;;
12892;SDS011;6514;48.606;9.222;2022-10-13T10:01:43;10.40;;;7.43;;
12892;SDS011;6514;48.606;9.222;2022-10-13T10:04:15;10.87;;;6.47;;
12892;SDS011;6514;48.606;9.222;2022-10-13T10:06:48;10.80;;;6.57;;
12892;SDS011;6514;48.606;9.222;2022-10-13T10:09:21;7.40;;;6.30;;
12892;SDS011;6514;48.606;9.222;2022-10-13T10:11:58;13.10;;;5.90;;
12892;SDS011;6514;48.606;9.222;2022-10-13T10:14:27;11.17;;;6.43;;
12892;SDS011;6514;48.606;9.222;2022-10-13T10:16:59;9.80;;;6.60;;
12892;SDS011;6514;48.606;9.222;2022-10-13T10:19:37;9.17;;;6.00;;
12892;SDS011;6514;48.606;9.222;2022-10-13T10:22:12;10.23;;;6.43;;
12892;SDS011;6514;48.606;9.222;2022-10-13T10:24:48;11.67;;;6.43;;
12892;SDS011;6514;48.606;9.222;2022-10-13T10:27:25;11.37;;;6.27;;
12892;SDS011;6514;48.606;9.222;2022-10-13T10:29:55;9.27;;;5.67;;
12892;SDS011;6514;48.606;9.222;2022-10-13T10:32:27;8.83;;;6.60;;
12892;SDS011;6514;48.606;9.222;2022-10-13T10:35:03;9.43;;;6.57;;
12892;SDS011;6514;48.606;9.222;2022-10-13T10:37:43;7.80;;;6.50;;
12892;SDS011;6514;48.606;9.222;2022-10-13T10:40:27;10.20;;;6.50;;
12892;SDS011;6514;48.606;9.222;2022-10-13T10:46:10;8.57;;;6.70;;
12892;SDS011;6514;48.606;9.222;2022-10-13T10:48:41;14.40;;;7.20;;
12892;SDS011;6514;48.606;9.222;2022-10-13T10:51:10;9.37;;;6.70;;
12892;SDS011;6514;48.606;9.222;2022-10-13T10:53:39;8.20;;;5.90;;
12892;SDS011;6514;48.606;9.222;2022-10-13T10:56:23;9.27;;;6.80;;
12892;SDS011;6514;48.606;9.222;2022-10-13T10:59:01;8.23;;;5.87;;
12892;SDS011;6514;48.606;9.222;2022-10-13T11:01:36;8.63;;;5.87;;
12892;SDS011;6514;48.606;9.222;2022-10-13T11:07:08;8.17;;;6.60;;
12892;SDS011;6514;48.606;9.222;2022-10-13T11:12:44;10.67;;;7.07;;
12892;SDS011;6514;48.606;9.222;2022-10-13T11:15:15;9.83;;;6.40;;
12892;SDS011;6514;48.606;9.222;2022-10-13T11:17:48;9.97;;;6.27;;
12892;SDS011;6514;48.606;9.222;2022-10-13T11:23:29;9.30;;;6.57;;
12892;SDS011;6514;48.606;9.222;2022-10-13T11:28:55;7.67;;;5.50;;
12892;SDS011;6514;48.606;9.222;2022-10-13T11:31:25;7.43;;;6.23;;
12892;SDS011;6514;48.606;9.222;2022-10-13T11:33:56;10.07;;;6.40;;
12892;SDS011;6514;48.606;9.222;2022-10-13T11:36:29;8.83;;;6.07;;
12892;SDS011;6514;48.606;9.222;2022-10-13T11:38:59;11.80;;;6.03;;
12892;SDS011;6514;48.606;9.222;2022-10-13T11:41:38;12.50;;;6.10;;
12892;SDS011;6514;48.606;9.222;2022-10-13T11:44:11;7.03;;;6.20;;
12892;SDS011;6514;48.606;9.222;2022-10-13T11:46:51;12.93;;;6.03;;
12892;SDS011;6514;48.606;9.222;2022-10-13T11:49:32;6.93;;;6.23;;
12892;SDS011;6514;48.606;9.222;2022-10-13T11:52:30;9.70;;;6.13;;
12892;SDS011;6514;48.606;9.222;2022-10-13T11:55:13;14.10;;;6.20;;
12892;SDS011;6514;48.606;9.222;2022-10-13T11:57:43;9.73;;;6.40;;
12892;SDS011;6514;48.606;9.222;2022-10-13T12:00:12;7.53;;;5.63;;
12892;SDS011;6514;48.606;9.222;2022-10-13T12:02:47;8.63;;;6.10;;
12892;SDS011;6514;48.606;9.222;2022-10-13T12:05:19;8.73;;;6.23;;
12892;SDS011;6514;48.606;9.222;2022-10-13T12:07:48;10.57;;;5.90;;
12892;SDS011;6514;48.606;9.222;2022-10-13T12:10:17;7.80;;;5.80;;
12892;SDS011;6514;48.606;9.222;2022-10-13T12:12:48;8.37;;;5.43;;
12892;SDS011;6514;48.606;9.222;2022-10-13T12:15:27;7.40;;;5.27;;
12892;SDS011;6514;48.606;9.222;2022-10-13T12:17:57;7.00;;;5.83;;
12892;SDS011;6514;48.606;9.222;2022-10-13T12:20:25;7.93;;;6.00;;
12892;SDS011;6514;48.606;9.222;2022-10-13T12:22:57;7.87;;;5.60;;
12892;SDS011;6514;48.606;9.222;2022-10-13T12:25:25;9.60;;;5.80;;
12892;SDS011;6514;48.606;9.222;2022-10-13T12:27:55;9.53;;;5.67;;
12892;SDS011;6514;48.606;9.222;2022-10-13T12:30:24;8.87;;;5.80;;
12892;SDS011;6514;48.606;9.222;2022-10-13T12:32:54;10.40;;;6.87;;
12892;SDS011;6514;48.606;9.222;2022-10-13T12:35:24;9.43;;;6.40;;
12892;SDS011;6514;48.606;9.222;2022-10-13T12:37:52;9.67;;;6.67;;
12892;SDS011;6514;48.606;9.222;2022-10-13T12:40:20;8.07;;;5.20;;
12892;SDS011;6514;48.606;9.222;2022-10-13T12:42:48;8.73;;;5.30;;
12892;SDS011;6514;48.606;9.222;2022-10-13T12:45:16;8.07;;;5.43;;
12892;SDS011;6514;48.606;9.222;2022-10-13T12:47:48;10.13;;;5.60;;
12892;SDS011;6514;48.606;9.222;2022-10-13T12:50:20;12.23;;;7.20;;
12892;SDS011;6514;48.606;9.222;2022-10-13T12:53:05;11.77;;;6.50;;
12892;SDS011;6514;48.606;9.222;2022-10-13T12:55:47;10.93;;;6.57;;
12892;SDS011;6514;48.606;9.222;2022-10-13T12:58:21;9.73;;;6.17;;
12892;SDS011;6514;48.606;9.222;2022-10-13T13:00:57;7.93;;;6.60;;
12892;SDS011;6514;48.606;9.222;2022-10-13T13:03:33;11.57;;;5.80;;
12892;SDS011;6514;48.606;9.222;2022-10-13T13:06:10;7.87;;;6.47;;
12892;SDS011;6514;48.606;9.222;2022-10-13T13:09:04;8.00;;;6.00;;
12892;SDS011;6514;48.606;9.222;2022-10-13T13:11:33;7.60;;;5.43;;
12892;SDS011;6514;48.606;9.222;2022-10-13T13:17:00;7.87;;;5.03;;
12892;SDS011;6514;48.606;9.222;2022-10-13T13:19:29;8.53;;;5.90;;
12892;SDS011;6514;48.606;9.222;2022-10-13T13:21:57;9.17;;;5.53;;
12892;SDS011;6514;48.606;9.222;2022-10-13T13:24:25;8.33;;;5.80;;
12892;SDS011;6514;48.606;9.222;2022-10-13T13:26:52;9.13;;;5.93;;
12892;SDS011;6514;48.606;9.222;2022-10-13T13:29:19;7.17;;;5.70;;
12892;SDS011;6514;48.606;9.222;2022-10-13T13:31:46;9.27;;;5.47;;
12892;SDS011;6514;48.606;9.222;2022-10-13T13:34:13;10.60;;;5.97;;
12892;SDS011;6514;48.606;9.222;2022-10-13T13:36:40;8.00;;;5.50;;
12892;SDS011;6514;48.606;9.222;2022-10-13T13:39:09;8.03;;;6.03;;
12892;SDS011;6514;48.606;9.222;2022-10-13T13:41:43;11.80;;;6.03;;
12892;SDS011;6514;48.606;9.222;2022-10-13T13:44:11;9.67;;;5.07;;
12892;SDS011;6514;48.606;9.222;2022-10-13T13:46:38;10.93;;;5.47;;
12892;SDS011;6514;48.606;9.222;2022-10-13T13:49:06;8.23;;;5.40;;
12892;SDS011;6514;48.606;9.222;2022-10-13T13:51:34;9.27;;;5.00;;
12892;SDS011;6514;48.606;9.222;2022-10-13T13:54:01;6.37;;;5.03;;
12892;SDS011;6514;48.606;9.222;2022-10-13T13:56:28;15.30;;;5.27;;
12892;SDS011;6514;48.606;9.222;2022-10-13T13:58:57;7.00;;;4.80;;
12892;SDS011;6514;48.606;9.222;2022-10-13T14:01:23;9.63;;;5.80;;
12892;SDS011;6514;48.606;9.222;2022-10-13T14:03:51;8.17;;;5.43;;
12892;SDS011;6514;48.606;9.222;2022-10-13T14:06:18;10.93;;;5.57;;
12892;SDS011;6514;48.606;9.222;2022-10-13T14:08:46;8.33;;;4.40;;
12892;SDS011;6514;48.606;9.222;2022-10-13T14:11:14;11.50;;;4.53;;
12892;SDS011;6514;48.606;9.222;2022-10-13T14:13:41;7.17;;;4.50;;
12892;SDS011;6514;48.606;9.222;2022-10-13T14:16:10;9.93;;;4.90;;
12892;SDS011;6514;48.606;9.222;2022-10-13T14:18:41;6.37;;;5.10;;
12892;SDS011;6514;48.606;9.222;2022-10-13T14:21:08;9.00;;;4.23;;
12892;SDS011;6514;48.606;9.222;2022-10-13T14:23:35;10.90;;;4.63;;
12892;SDS011;6514;48.606;9.222;2022-10-13T14:26:05;9.20;;;5.17;;
12892;SDS011;6514;48.606;9.222;2022-10-13T14:28:34;7.17;;;4.60;;
12892;SDS011;6514;48.606;9.222;2022-10-13T14:31:03;9.60;;;5.10;;
12892;SDS011;6514;48.606;9.222;2022-10-13T14:33:33;7.53;;;4.97;;
12892;SDS011;6514;48.606;9.222;2022-10-13T14:36:00;7.57;;;4.70;;
12892;SDS011;6514;48.606;9.222;2022-10-13T14:38:28;8.00;;;5.53;;
12892;SDS011;6514;48.606;9.222;2022-10-13T14:40:59;10.07;;;4.83;;
12892;SDS011;6514;48.606;9.222;2022-10-13T14:43:26;9.90;;;5.07;;
12892;SDS011;6514;48.606;9.222;2022-10-13T14:45:54;6.93;;;3.97;;
12892;SDS011;6514;48.606;9.222;2022-10-13T14:48:21;8.87;;;4.53;;
12892;SDS011;6514;48.606;9.222;2022-10-13T14:50:52;9.30;;;4.13;;
12892;SDS011;6514;48.606;9.222;2022-10-13T14:53:19;4.87;;;3.90;;
12892;SDS011;6514;48.606;9.222;2022-10-13T14:55:48;8.93;;;4.53;;
12892;SDS011;6514;48.606;9.222;2022-10-13T14:58:15;6.93;;;3.73;;
12892;SDS011;6514;48.606;9.222;2022-10-13T15:00:42;9.33;;;4.30;;
12892;SDS011;6514;48.606;9.222;2022-10-13T15:03:09;7.07;;;4.60;;
12892;SDS011;6514;48.606;9.222;2022-10-13T15:05:37;8.33;;;4.90;;
12892;SDS011;6514;48.606;9.222;2022-10-13T15:08:05;7.97;;;5.63;;
12892;SDS011;6514;48.606;9.222;2022-10-13T15:10:32;6.87;;;5.27;;
12892;SDS011;6514;48.606;9.222;2022-10-13T15:12:59;9.97;;;5.23;;
12892;SDS011;6514;48.606;9.222;2022-10-13T15:15:26;8.37;;;4.93;;
12892;SDS011;6514;48.606;9.222;2022-10-13T15:17:54;11.10;;;5.37;;
12892;SDS011;6514;48.606;9.222;2022-10-13T15:20:21;6.93;;;4.37;;